Low Profile — WDH8818 — position and weather

sailwx.info

Track history (hours):
 
Tides and Currents Weather Stations Pressure Air Temp Water Temp Dewpoint Dewpoint Depression Visibility Wind Speed Wind Dir Waves Ship Positions

Low Profile

Owner: Tait, Timothy, Knoxville, TN. More information available from US FCC via Universal Licensing System and Coast Guard Vessel Documentation Center.

Last reported at 2017-Sep-26 12:34 UTC. Time now 2017-Oct-18 18:25 UTC.
Position N 38°02' W 076°25'.
Warning: this ship's position is 22 days out of date.

Length 13 m.

Type: Pleasure craft. MMSI: 367661780.

Date/timePositionNaut miles runAvg speedWind from/ knotsBaromVisibWave heightAir tempDewpointWater temp
2017-Sep-26 12:34N 38°02' W 076°25'1 8.3
2017-Sep-26 12:29N 38°02' W 076°26'4 7.9
2017-Sep-26 11:58N 38°02' W 076°31'2 0.1
2017-Sep-25 17:02N 38°03' W 076°33'0 0.5
2017-Sep-25 16:55N 38°03' W 076°33'3 6.3
2017-Sep-25 16:29N 38°03' W 076°30'50 1.8
2017-Sep-24 12:38N 38°45' W 077°02'1 7.5
2017-Sep-24 12:29N 38°46' W 077°02'3 6.2
2017-Sep-24 11:59N 38°50' W 077°02'3 6.2
2017-Sep-24 11:30N 38°52' W 077°01'  
2017-Sep-17 18:05N 38°53' W 077°01'0 0.0
2017-Sep-17 17:59N 38°53' W 077°01'0 0.6
2017-Sep-17 17:30N 38°52' W 077°01'4 7.3
2017-Sep-17 16:59N 38°49' W 077°02'3 6.8
2017-Sep-17 16:30N 38°45' W 077°02'48 1.7
2017-Sep-16 12:55N 38°05' W 076°30'  
Track history (hours):
 
Tides and Currents Weather Stations Pressure Air Temp Water Temp Dewpoint Dewpoint Depression Visibility Wind Speed Wind Dir Waves Ship Positions

Low Profile

Owner: Tait, Timothy, Knoxville, TN. More information available from US FCC via Universal Licensing System and Coast Guard Vessel Documentation Center.

Last reported at 2017-Sep-26 12:34 UTC. Time now 2017-Oct-18 18:25 UTC.
Position N 38°02' W 076°25'.
Warning: this ship's position is 22 days out of date.

Length 13 m.

Type: Pleasure craft. MMSI: 367661780.

Date/timePositionNaut miles runAvg speedWind from/ knotsBaromVisibWave heightAir tempDewpointWater temp
2017-Sep-26 12:34N 38°02' W 076°25'1 8.3
2017-Sep-26 12:29N 38°02' W 076°26'4 7.9
2017-Sep-26 11:58N 38°02' W 076°31'2 0.1
2017-Sep-25 17:02N 38°03' W 076°33'0 0.5
2017-Sep-25 16:55N 38°03' W 076°33'3 6.3
2017-Sep-25 16:29N 38°03' W 076°30'50 1.8
2017-Sep-24 12:38N 38°45' W 077°02'1 7.5
2017-Sep-24 12:29N 38°46' W 077°02'3 6.2
2017-Sep-24 11:59N 38°50' W 077°02'3 6.2
2017-Sep-24 11:30N 38°52' W 077°01'  
2017-Sep-17 18:05N 38°53' W 077°01'0 0.0
2017-Sep-17 17:59N 38°53' W 077°01'0 0.6
2017-Sep-17 17:30N 38°52' W 077°01'4 7.3
2017-Sep-17 16:59N 38°49' W 077°02'3 6.8
2017-Sep-17 16:30N 38°45' W 077°02'48 1.7
2017-Sep-16 12:55N 38°05' W 076°30'  

Dump ship's entire track history